Jesus Teran International Airport
MMAS : now visible

Airfield :











YOU CAN JOIN US ON...

 
LOGIN :

Register | Disclaimer

   EN    FR    IT 

 









Legend :    VFR   Marginal VFR   IFR   Intensive IFR   Very Intensive IFR
Visi :
Ceiling :
>= 8 km
>= 3000ft
5 to 8 km
1000 to 3000 ft
1500m to 5 km
500 to 1000 ft
800 to 1500m
200 to 500 ft
< 800m
< 200 ft
Symbols :   Thunderstorms  Fog  Heavy snow  Heavy precipitations  Wind > 20 kt






- Airport Elevation : 6112 ft
- IATA code : AGU


MMAS - Jesus Teran International

CURRENT METAR :
  • 151144Z 03003KT 6SM SKC 06/M02 A3021 RMK SLP116 HZY

EXPIRED METARs :
  • 151043Z 34003KT 8SM SKC 06/M04 A3021
  • 150943Z 35002KT 8SM SKC 08/M03 A3020 RMK HZY

TAF TAF MMAS
Valid from the 15 at 06:00 until the 16 at 06:00 UTC


150458Z 1506/1606 16005KT P6SM SKC
FM151800 25015KT P6SM SKC
FM160300 25005KT P6SM SKC



MET'MAP, your aeronautical weather chart ! - Copyright ORBIFLY December 2007 - Disclaimer

ORBIFLY MET'MAP TEAM :

Programming & Development : Alexandra Zaïnal
Concept & original design : Baudouin d'Aumeries
Assistance for programming : Marc-Olivier Méhu
Technical & hardware support : Manuel Goepfert

Contact : metmap@orbifly.com




SOURCES & CREDITS :

   NOAA       Earth
Advisory